sensor_id;sensor_type;location;lat;lon;timestamp;pressure;altitude;pressure_sealevel;temperature;humidity
21828;BME280;11076;47.942;11.804;2023-04-05T00:01:05;94696.97;;;-4.51;77.87
21828;BME280;11076;47.942;11.804;2023-04-05T00:06:08;94702.78;;;-4.58;78.80
21828;BME280;11076;47.942;11.804;2023-04-05T00:11:15;94691.53;;;-4.59;78.72
21828;BME280;11076;47.942;11.804;2023-04-05T00:16:18;94692.84;;;-4.65;79.53
21828;BME280;11076;47.942;11.804;2023-04-05T00:21:22;94690.72;;;-4.60;79.40
21828;BME280;11076;47.942;11.804;2023-04-05T00:26:25;94685.13;;;-4.66;80.30
21828;BME280;11076;47.942;11.804;2023-04-05T00:31:31;94676.25;;;-4.75;80.58
21828;BME280;11076;47.942;11.804;2023-04-05T00:36:33;94669.81;;;-4.82;80.39
21828;BME280;11076;47.942;11.804;2023-04-05T00:41:36;94670.19;;;-4.87;80.82
21828;BME280;11076;47.942;11.804;2023-04-05T00:46:39;94674.81;;;-4.90;81.00
21828;BME280;11076;47.942;11.804;2023-04-05T00:51:42;94669.09;;;-4.95;80.89
21828;BME280;11076;47.942;11.804;2023-04-05T00:56:46;94665.22;;;-5.01;80.73
21828;BME280;11076;47.942;11.804;2023-04-05T01:02:22;94661.28;;;-5.07;81.38
21828;BME280;11076;47.942;11.804;2023-04-05T01:12:38;94659.88;;;-5.11;82.53
21828;BME280;11076;47.942;11.804;2023-04-05T01:17:40;94644.69;;;-5.17;82.87
21828;BME280;11076;47.942;11.804;2023-04-05T01:38:51;94629.41;;;-5.33;83.47
21828;BME280;11076;47.942;11.804;2023-04-05T01:43:55;94620.00;;;-5.35;83.62
21828;BME280;11076;47.942;11.804;2023-04-05T01:48:57;94620.00;;;-5.35;83.31
21828;BME280;11076;47.942;11.804;2023-04-05T01:54:00;94612.34;;;-5.37;83.55
21828;BME280;11076;47.942;11.804;2023-04-05T01:59:02;94615.25;;;-5.42;83.97
21828;BME280;11076;47.942;11.804;2023-04-05T02:04:06;94611.72;;;-5.41;84.24
21828;BME280;11076;47.942;11.804;2023-04-05T02:09:08;94612.19;;;-5.47;84.29
21828;BME280;11076;47.942;11.804;2023-04-05T02:14:10;94599.88;;;-5.45;84.07
21828;BME280;11076;47.942;11.804;2023-04-05T02:19:13;94591.56;;;-5.50;84.34
21828;BME280;11076;47.942;11.804;2023-04-05T02:24:17;94591.81;;;-5.53;84.32
21828;BME280;11076;47.942;11.804;2023-04-05T02:29:19;94596.53;;;-5.58;84.51
21828;BME280;11076;47.942;11.804;2023-04-05T02:34:23;94587.44;;;-5.52;84.28
21828;BME280;11076;47.942;11.804;2023-04-05T02:39:25;94580.94;;;-5.47;86.49
21828;BME280;11076;47.942;11.804;2023-04-05T02:44:30;94582.56;;;-5.46;85.82
21828;BME280;11076;47.942;11.804;2023-04-05T02:49:32;94575.47;;;-5.44;85.10
21828;BME280;11076;47.942;11.804;2023-04-05T02:54:37;94571.91;;;-5.54;84.82
21828;BME280;11076;47.942;11.804;2023-04-05T02:59:40;94567.97;;;-5.60;85.30
21828;BME280;11076;47.942;11.804;2023-04-05T03:04:44;94576.97;;;-5.64;85.45
21828;BME280;11076;47.942;11.804;2023-04-05T03:09:50;94572.47;;;-5.73;85.76
21828;BME280;11076;47.942;11.804;2023-04-05T03:14:54;94568.56;;;-5.67;86.31
21828;BME280;11076;47.942;11.804;2023-04-05T03:19:59;94576.06;;;-5.63;86.40
21828;BME280;11076;47.942;11.804;2023-04-05T03:25:02;94566.66;;;-5.65;85.92
21828;BME280;11076;47.942;11.804;2023-04-05T03:30:07;94570.91;;;-5.75;86.98
21828;BME280;11076;47.942;11.804;2023-04-05T03:35:15;94559.06;;;-5.80;86.96
21828;BME280;11076;47.942;11.804;2023-04-05T03:40:22;94563.09;;;-5.75;86.89
21828;BME280;11076;47.942;11.804;2023-04-05T03:45:26;94560.00;;;-5.92;87.51
21828;BME280;11076;47.942;11.804;2023-04-05T03:50:30;94558.72;;;-5.86;87.32
21828;BME280;11076;47.942;11.804;2023-04-05T03:55:33;94559.47;;;-5.73;86.94
21828;BME280;11076;47.942;11.804;2023-04-05T04:00:39;94560.38;;;-5.74;86.91
21828;BME280;11076;47.942;11.804;2023-04-05T04:05:55;94560.50;;;-5.75;87.17
21828;BME280;11076;47.942;11.804;2023-04-05T04:10:58;94563.59;;;-5.70;86.89
21828;BME280;11076;47.942;11.804;2023-04-05T04:16:08;94553.50;;;-5.86;87.25
21828;BME280;11076;47.942;11.804;2023-04-05T04:21:40;94546.28;;;-5.94;87.57
21828;BME280;11076;47.942;11.804;2023-04-05T04:26:46;94552.91;;;-5.90;87.15
21828;BME280;11076;47.942;11.804;2023-04-05T04:32:05;94557.91;;;-5.87;87.29
21828;BME280;11076;47.942;11.804;2023-04-05T04:37:19;94556.94;;;-5.86;87.05
21828;BME280;11076;47.942;11.804;2023-04-05T04:42:43;94551.50;;;-5.83;87.32
21828;BME280;11076;47.942;11.804;2023-04-05T04:48:10;94554.47;;;-5.76;86.74
21828;BME280;11076;47.942;11.804;2023-04-05T04:53:25;94555.28;;;-5.75;87.18
21828;BME280;11076;47.942;11.804;2023-04-05T04:58:28;94552.03;;;-5.55;87.49
21828;BME280;11076;47.942;11.804;2023-04-05T05:03:38;94563.25;;;-5.43;87.09
21828;BME280;11076;47.942;11.804;2023-04-05T05:08:40;94565.19;;;-5.23;86.94
21828;BME280;11076;47.942;11.804;2023-04-05T05:13:43;94555.91;;;-3.33;83.50
21828;BME280;11076;47.942;11.804;2023-04-05T05:18:53;94544.03;;;-0.74;77.74
21828;BME280;11076;47.942;11.804;2023-04-05T05:23:59;94548.34;;;0.27;74.98
21828;BME280;11076;47.942;11.804;2023-04-05T05:29:01;94547.53;;;-0.10;76.26
21828;BME280;11076;47.942;11.804;2023-04-05T05:34:06;94556.25;;;-0.83;76.48
21828;BME280;11076;47.942;11.804;2023-04-05T05:39:11;94544.72;;;0.28;75.66
21828;BME280;11076;47.942;11.804;2023-04-05T05:44:13;94545.44;;;2.34;69.60
21828;BME280;11076;47.942;11.804;2023-04-05T05:49:16;94551.75;;;1.58;68.14
21828;BME280;11076;47.942;11.804;2023-04-05T05:54:18;94551.03;;;1.13;68.68
21828;BME280;11076;47.942;11.804;2023-04-05T05:59:21;94557.75;;;1.93;64.80
21828;BME280;11076;47.942;11.804;2023-04-05T06:04:23;94557.81;;;2.09;65.25
21828;BME280;11076;47.942;11.804;2023-04-05T06:09:26;94574.88;;;1.04;66.40
21828;BME280;11076;47.942;11.804;2023-04-05T06:14:30;94567.91;;;0.06;65.50
21828;BME280;11076;47.942;11.804;2023-04-05T06:19:32;94573.75;;;-1.01;68.95
21828;BME280;11076;47.942;11.804;2023-04-05T06:24:35;94570.94;;;-1.27;70.77
21828;BME280;11076;47.942;11.804;2023-04-05T06:29:37;94570.94;;;-1.27;71.32
21828;BME280;11076;47.942;11.804;2023-04-05T06:34:39;94581.25;;;-1.26;71.97
21828;BME280;11076;47.942;11.804;2023-04-05T06:39:42;94582.91;;;-1.15;72.19
21828;BME280;11076;47.942;11.804;2023-04-05T06:44:44;94575.72;;;-1.13;71.86
21828;BME280;11076;47.942;11.804;2023-04-05T06:49:47;94574.03;;;-1.14;71.85
21828;BME280;11076;47.942;11.804;2023-04-05T06:54:49;94564.88;;;-1.00;71.69
21828;BME280;11076;47.942;11.804;2023-04-05T06:59:53;94564.78;;;-0.71;71.42
21828;BME280;11076;47.942;11.804;2023-04-05T07:04:55;94566.41;;;-0.42;70.90
21828;BME280;11076;47.942;11.804;2023-04-05T07:10:05;94563.66;;;-0.23;71.01
21828;BME280;11076;47.942;11.804;2023-04-05T07:15:08;94566.38;;;-0.14;70.38
21828;BME280;11076;47.942;11.804;2023-04-05T07:20:10;94561.13;;;0.04;70.13
21828;BME280;11076;47.942;11.804;2023-04-05T07:25:13;94561.44;;;0.18;68.98
21828;BME280;11076;47.942;11.804;2023-04-05T07:30:15;94562.28;;;0.45;68.43
21828;BME280;11076;47.942;11.804;2023-04-05T07:35:18;94564.31;;;0.51;67.70
21828;BME280;11076;47.942;11.804;2023-04-05T07:40:20;94565.41;;;0.67;66.61
21828;BME280;11076;47.942;11.804;2023-04-05T07:45:23;94568.53;;;0.88;65.88
21828;BME280;11076;47.942;11.804;2023-04-05T07:50:26;94564.91;;;0.89;64.90
21828;BME280;11076;47.942;11.804;2023-04-05T07:55:28;94572.25;;;1.04;64.25
21828;BME280;11076;47.942;11.804;2023-04-05T08:00:31;94583.56;;;1.30;64.85
21828;BME280;11076;47.942;11.804;2023-04-05T08:05:33;94570.13;;;1.42;63.59
21828;BME280;11076;47.942;11.804;2023-04-05T08:10:39;94587.06;;;1.39;63.31
21828;BME280;11076;47.942;11.804;2023-04-05T08:15:42;94574.31;;;1.61;62.13
21828;BME280;11076;47.942;11.804;2023-04-05T08:20:44;94578.72;;;2.03;62.85
21828;BME280;11076;47.942;11.804;2023-04-05T08:25:52;94573.94;;;2.06;62.66
21828;BME280;11076;47.942;11.804;2023-04-05T08:30:55;94579.06;;;2.16;60.95
21828;BME280;11076;47.942;11.804;2023-04-05T08:36:06;94576.13;;;2.27;59.68
21828;BME280;11076;47.942;11.804;2023-04-05T08:41:20;94576.13;;;2.35;59.81
21828;BME280;11076;47.942;11.804;2023-04-05T08:46:25;94576.28;;;2.50;59.04
21828;BME280;11076;47.942;11.804;2023-04-05T08:51:28;94585.53;;;2.79;58.05
21828;BME280;11076;47.942;11.804;2023-04-05T08:56:32;94579.56;;;2.93;56.62
21828;BME280;11076;47.942;11.804;2023-04-05T09:01:42;94579.25;;;3.05;55.61
21828;BME280;11076;47.942;11.804;2023-04-05T09:06:46;94576.09;;;3.09;56.31
21828;BME280;11076;47.942;11.804;2023-04-05T09:11:51;94573.66;;;3.47;56.68
21828;BME280;11076;47.942;11.804;2023-04-05T09:16:54;94567.91;;;3.44;54.21
21828;BME280;11076;47.942;11.804;2023-04-05T09:27:26;94575.09;;;3.97;51.69
21828;BME280;11076;47.942;11.804;2023-04-05T09:32:32;94569.53;;;4.15;50.13
21828;BME280;11076;47.942;11.804;2023-04-05T09:37:49;94560.66;;;4.31;47.89
21828;BME280;11076;47.942;11.804;2023-04-05T09:42:54;94577.91;;;4.50;47.59
21828;BME280;11076;47.942;11.804;2023-04-05T09:47:57;94566.94;;;5.00;47.98
21828;BME280;11076;47.942;11.804;2023-04-05T09:53:10;94566.47;;;5.11;49.24
21828;BME280;11076;47.942;11.804;2023-04-05T09:58:20;94571.97;;;5.24;47.61
21828;BME280;11076;47.942;11.804;2023-04-05T10:03:26;94568.88;;;5.35;47.23
21828;BME280;11076;47.942;11.804;2023-04-05T10:08:28;94556.72;;;5.26;46.60
21828;BME280;11076;47.942;11.804;2023-04-05T10:13:31;94559.28;;;5.79;46.34
21828;BME280;11076;47.942;11.804;2023-04-05T10:18:45;94559.06;;;5.06;44.05
21828;BME280;11076;47.942;11.804;2023-04-05T10:23:58;94560.47;;;4.79;46.83
21828;BME280;11076;47.942;11.804;2023-04-05T10:29:10;94554.94;;;4.19;44.59
21828;BME280;11076;47.942;11.804;2023-04-05T10:34:37;94549.84;;;4.64;45.04
21828;BME280;11076;47.942;11.804;2023-04-05T10:39:45;94546.38;;;4.41;47.50
21828;BME280;11076;47.942;11.804;2023-04-05T10:44:52;94544.38;;;5.33;46.86
21828;BME280;11076;47.942;11.804;2023-04-05T10:50:03;94532.56;;;5.51;46.66
21828;BME280;11076;47.942;11.804;2023-04-05T10:55:08;94526.06;;;5.68;45.50
21828;BME280;11076;47.942;11.804;2023-04-05T11:00:12;94540.06;;;5.03;46.30
21828;BME280;11076;47.942;11.804;2023-04-05T11:05:34;94530.50;;;5.31;48.54
21828;BME280;11076;47.942;11.804;2023-04-05T11:10:38;94529.47;;;5.47;48.01
21828;BME280;11076;47.942;11.804;2023-04-05T11:15:41;94522.22;;;5.41;46.32
21828;BME280;11076;47.942;11.804;2023-04-05T11:30:53;94498.00;;;6.10;46.33
21828;BME280;11076;47.942;11.804;2023-04-05T11:36:00;94506.41;;;6.35;45.81
21828;BME280;11076;47.942;11.804;2023-04-05T11:41:11;94497.41;;;6.58;44.28
21828;BME280;11076;47.942;11.804;2023-04-05T11:46:13;94495.84;;;6.42;43.37
21828;BME280;11076;47.942;11.804;2023-04-05T11:51:19;94484.69;;;6.75;44.07
21828;BME280;11076;47.942;11.804;2023-04-05T11:56:24;94487.75;;;6.50;41.04
21828;BME280;11076;47.942;11.804;2023-04-05T12:01:26;94493.81;;;6.66;43.43
21828;BME280;11076;47.942;11.804;2023-04-05T12:06:29;94493.03;;;7.00;41.58
21828;BME280;11076;47.942;11.804;2023-04-05T12:11:32;94489.50;;;7.21;42.09
21828;BME280;11076;47.942;11.804;2023-04-05T12:16:34;94486.31;;;7.32;42.93
21828;BME280;11076;47.942;11.804;2023-04-05T12:21:36;94483.25;;;7.01;40.92
21828;BME280;11076;47.942;11.804;2023-04-05T12:26:39;94490.53;;;6.21;39.71
21828;BME280;11076;47.942;11.804;2023-04-05T12:31:45;94482.19;;;5.51;41.71
21828;BME280;11076;47.942;11.804;2023-04-05T12:36:48;94482.97;;;5.66;42.99
21828;BME280;11076;47.942;11.804;2023-04-05T12:41:59;94479.59;;;5.72;42.94
21828;BME280;11076;47.942;11.804;2023-04-05T12:47:02;94471.19;;;6.48;41.38
21828;BME280;11076;47.942;11.804;2023-04-05T12:52:06;94466.25;;;6.67;42.25
21828;BME280;11076;47.942;11.804;2023-04-05T12:57:10;94460.78;;;6.75;41.10
21828;BME280;11076;47.942;11.804;2023-04-05T13:02:14;94458.13;;;6.75;42.15
21828;BME280;11076;47.942;11.804;2023-04-05T13:07:16;94457.22;;;6.96;41.52
21828;BME280;11076;47.942;11.804;2023-04-05T13:12:19;94454.97;;;6.93;41.20
21828;BME280;11076;47.942;11.804;2023-04-05T13:17:21;94452.81;;;7.10;40.81
21828;BME280;11076;47.942;11.804;2023-04-05T13:22:24;94452.41;;;7.06;40.13
21828;BME280;11076;47.942;11.804;2023-04-05T13:27:26;94446.22;;;6.99;38.76
21828;BME280;11076;47.942;11.804;2023-04-05T13:32:29;94427.25;;;7.09;39.04
21828;BME280;11076;47.942;11.804;2023-04-05T13:37:31;94431.53;;;7.45;40.47
21828;BME280;11076;47.942;11.804;2023-04-05T13:42:34;94432.31;;;7.39;38.49
21828;BME280;11076;47.942;11.804;2023-04-05T13:47:36;94423.34;;;7.46;38.11
21828;BME280;11076;47.942;11.804;2023-04-05T13:52:39;94427.25;;;7.57;37.88
21828;BME280;11076;47.942;11.804;2023-04-05T13:57:41;94427.19;;;7.37;36.78
21828;BME280;11076;47.942;11.804;2023-04-05T14:02:44;94418.78;;;7.33;38.33
21828;BME280;11076;47.942;11.804;2023-04-05T14:07:46;94411.69;;;7.47;39.58
21828;BME280;11076;47.942;11.804;2023-04-05T14:12:51;94417.81;;;7.48;39.13
21828;BME280;11076;47.942;11.804;2023-04-05T14:17:53;94416.22;;;7.12;37.63
21828;BME280;11076;47.942;11.804;2023-04-05T14:22:56;94406.44;;;7.19;37.60
21828;BME280;11076;47.942;11.804;2023-04-05T14:27:59;94409.50;;;7.77;37.01
21828;BME280;11076;47.942;11.804;2023-04-05T14:33:01;94401.81;;;8.23;38.11
21828;BME280;11076;47.942;11.804;2023-04-05T14:38:04;94400.63;;;8.59;38.39
21828;BME280;11076;47.942;11.804;2023-04-05T14:43:06;94392.00;;;8.43;38.58
21828;BME280;11076;47.942;11.804;2023-04-05T14:48:09;94398.13;;;8.10;37.85
21828;BME280;11076;47.942;11.804;2023-04-05T14:53:12;94397.63;;;7.60;37.80
21828;BME280;11076;47.942;11.804;2023-04-05T14:58:14;94406.09;;;6.94;38.21
21828;BME280;11076;47.942;11.804;2023-04-05T15:03:18;94403.56;;;6.79;39.25
21828;BME280;11076;47.942;11.804;2023-04-05T15:08:21;94398.75;;;6.61;39.52
21828;BME280;11076;47.942;11.804;2023-04-05T15:13:23;94405.56;;;6.42;39.24
21828;BME280;11076;47.942;11.804;2023-04-05T15:18:28;94393.00;;;6.57;39.94
21828;BME280;11076;47.942;11.804;2023-04-05T15:23:30;94391.84;;;6.67;39.52
21828;BME280;11076;47.942;11.804;2023-04-05T15:28:32;94396.41;;;6.80;40.65
21828;BME280;11076;47.942;11.804;2023-04-05T15:33:35;94387.19;;;6.75;40.66
21828;BME280;11076;47.942;11.804;2023-04-05T15:38:37;94396.47;;;6.30;42.34
21828;BME280;11076;47.942;11.804;2023-04-05T15:43:40;94406.56;;;5.76;42.84
21828;BME280;11076;47.942;11.804;2023-04-05T15:48:42;94408.59;;;5.74;42.61
21828;BME280;11076;47.942;11.804;2023-04-05T15:53:45;94401.13;;;5.85;43.05
21828;BME280;11076;47.942;11.804;2023-04-05T15:58:47;94406.00;;;5.60;42.24
21828;BME280;11076;47.942;11.804;2023-04-05T16:03:50;94405.91;;;5.53;42.61
21828;BME280;11076;47.942;11.804;2023-04-05T16:08:54;94413.81;;;5.46;42.58
21828;BME280;11076;47.942;11.804;2023-04-05T16:13:57;94408.94;;;5.50;42.53
21828;BME280;11076;47.942;11.804;2023-04-05T16:18:59;94407.19;;;5.57;42.75
21828;BME280;11076;47.942;11.804;2023-04-05T16:24:02;94413.09;;;5.37;43.96
21828;BME280;11076;47.942;11.804;2023-04-05T16:29:05;94412.75;;;5.11;44.73
21828;BME280;11076;47.942;11.804;2023-04-05T16:34:07;94410.03;;;4.89;45.32
21828;BME280;11076;47.942;11.804;2023-04-05T16:39:10;94414.59;;;4.81;45.45
21828;BME280;11076;47.942;11.804;2023-04-05T16:44:12;94410.69;;;4.76;45.40
21828;BME280;11076;47.942;11.804;2023-04-05T16:49:15;94417.91;;;4.68;46.34
21828;BME280;11076;47.942;11.804;2023-04-05T16:54:17;94416.69;;;4.55;47.27
21828;BME280;11076;47.942;11.804;2023-04-05T16:59:20;94425.97;;;4.36;48.50
21828;BME280;11076;47.942;11.804;2023-04-05T17:04:22;94425.72;;;4.08;49.19
21828;BME280;11076;47.942;11.804;2023-04-05T17:09:25;94423.50;;;3.97;48.85
21828;BME280;11076;47.942;11.804;2023-04-05T17:14:30;94418.84;;;3.76;48.92
21828;BME280;11076;47.942;11.804;2023-04-05T17:19:33;94433.34;;;3.57;49.65
21828;BME280;11076;47.942;11.804;2023-04-05T17:24:36;94440.75;;;3.38;50.24
21828;BME280;11076;47.942;11.804;2023-04-05T17:29:39;94432.91;;;3.14;50.08
21828;BME280;11076;47.942;11.804;2023-04-05T17:34:41;94446.75;;;2.85;50.54
21828;BME280;11076;47.942;11.804;2023-04-05T17:39:43;94443.34;;;2.59;51.38
21828;BME280;11076;47.942;11.804;2023-04-05T17:44:46;94449.63;;;2.34;52.08
21828;BME280;11076;47.942;11.804;2023-04-05T17:49:49;94451.81;;;2.14;52.35
21828;BME280;11076;47.942;11.804;2023-04-05T17:54:51;94454.94;;;2.01;52.95
21828;BME280;11076;47.942;11.804;2023-04-05T17:59:55;94454.75;;;1.94;54.07
21828;BME280;11076;47.942;11.804;2023-04-05T18:04:58;94465.78;;;1.73;54.55
21828;BME280;11076;47.942;11.804;2023-04-05T18:10:02;94470.03;;;1.50;54.56
21828;BME280;11076;47.942;11.804;2023-04-05T18:15:05;94473.44;;;1.34;55.15
21828;BME280;11076;47.942;11.804;2023-04-05T18:20:09;94473.84;;;1.13;56.06
21828;BME280;11076;47.942;11.804;2023-04-05T18:25:11;94483.19;;;0.99;56.66
21828;BME280;11076;47.942;11.804;2023-04-05T18:30:14;94490.81;;;0.76;57.03
21828;BME280;11076;47.942;11.804;2023-04-05T18:35:17;94504.22;;;0.65;57.96
21828;BME280;11076;47.942;11.804;2023-04-05T18:40:19;94507.28;;;0.52;58.71
21828;BME280;11076;47.942;11.804;2023-04-05T18:45:22;94510.50;;;0.46;59.10
21828;BME280;11076;47.942;11.804;2023-04-05T18:50:25;94519.53;;;0.43;59.48
21828;BME280;11076;47.942;11.804;2023-04-05T18:55:27;94517.31;;;0.30;59.92
21828;BME280;11076;47.942;11.804;2023-04-05T19:00:29;94520.19;;;0.19;61.13
21828;BME280;11076;47.942;11.804;2023-04-05T19:05:32;94529.13;;;0.08;62.12
21828;BME280;11076;47.942;11.804;2023-04-05T19:10:35;94540.53;;;-0.01;62.40
21828;BME280;11076;47.942;11.804;2023-04-05T19:15:37;94538.31;;;0.04;63.45
21828;BME280;11076;47.942;11.804;2023-04-05T19:20:40;94535.44;;;0.15;63.29
21828;BME280;11076;47.942;11.804;2023-04-05T19:25:42;94538.44;;;0.21;63.92
21828;BME280;11076;47.942;11.804;2023-04-05T19:30:45;94539.19;;;0.31;63.90
21828;BME280;11076;47.942;11.804;2023-04-05T19:35:47;94543.53;;;0.40;63.55
21828;BME280;11076;47.942;11.804;2023-04-05T19:40:50;94548.47;;;0.43;64.00
21828;BME280;11076;47.942;11.804;2023-04-05T19:45:58;94544.97;;;0.34;64.57
21828;BME280;11076;47.942;11.804;2023-04-05T19:51:05;94536.09;;;0.17;65.01
21828;BME280;11076;47.942;11.804;2023-04-05T19:56:11;94544.91;;;0.08;65.89
21828;BME280;11076;47.942;11.804;2023-04-05T20:06:35;94543.09;;;-0.09;66.39
21828;BME280;11076;47.942;11.804;2023-04-05T20:11:37;94541.28;;;-0.27;66.11
21828;BME280;11076;47.942;11.804;2023-04-05T20:16:40;94544.13;;;-0.38;66.51
21828;BME280;11076;47.942;11.804;2023-04-05T20:21:43;94535.09;;;-0.53;67.64
21828;BME280;11076;47.942;11.804;2023-04-05T20:26:46;94550.38;;;-0.67;67.65
21828;BME280;11076;47.942;11.804;2023-04-05T20:31:49;94531.91;;;-0.75;67.81
21828;BME280;11076;47.942;11.804;2023-04-05T20:36:58;94530.81;;;-0.82;67.57
21828;BME280;11076;47.942;11.804;2023-04-05T20:42:01;94538.78;;;-1.02;67.93
21828;BME280;11076;47.942;11.804;2023-04-05T20:47:04;94528.47;;;-1.13;68.33
21828;BME280;11076;47.942;11.804;2023-04-05T20:52:07;94526.03;;;-1.24;69.03
21828;BME280;11076;47.942;11.804;2023-04-05T20:57:12;94521.47;;;-1.22;69.22
21828;BME280;11076;47.942;11.804;2023-04-05T21:02:16;94530.22;;;-1.31;69.25
21828;BME280;11076;47.942;11.804;2023-04-05T21:07:18;94531.59;;;-1.37;69.13
21828;BME280;11076;47.942;11.804;2023-04-05T21:12:20;94530.38;;;-1.43;69.23
21828;BME280;11076;47.942;11.804;2023-04-05T21:17:23;94535.50;;;-1.51;69.78
21828;BME280;11076;47.942;11.804;2023-04-05T21:22:25;94538.25;;;-1.52;69.68
21828;BME280;11076;47.942;11.804;2023-04-05T21:27:28;94539.09;;;-1.62;69.78
21828;BME280;11076;47.942;11.804;2023-04-05T21:32:30;94540.34;;;-1.75;70.37
21828;BME280;11076;47.942;11.804;2023-04-05T21:37:33;94536.34;;;-1.80;70.89
21828;BME280;11076;47.942;11.804;2023-04-05T21:42:36;94540.38;;;-1.85;71.02
21828;BME280;11076;47.942;11.804;2023-04-05T21:47:38;94539.16;;;-1.91;71.17
21828;BME280;11076;47.942;11.804;2023-04-05T21:52:42;94546.31;;;-1.93;71.89
21828;BME280;11076;47.942;11.804;2023-04-05T21:57:45;94541.22;;;-1.94;72.30
21828;BME280;11076;47.942;11.804;2023-04-05T22:02:48;94538.84;;;-1.97;72.15
21828;BME280;11076;47.942;11.804;2023-04-05T22:07:50;94541.34;;;-2.06;72.07
21828;BME280;11076;47.942;11.804;2023-04-05T22:12:52;94540.78;;;-2.09;72.26
21828;BME280;11076;47.942;11.804;2023-04-05T22:17:55;94540.09;;;-2.11;73.19
21828;BME280;11076;47.942;11.804;2023-04-05T22:22:57;94542.88;;;-2.23;73.07
21828;BME280;11076;47.942;11.804;2023-04-05T22:28:00;94534.16;;;-2.23;73.41
21828;BME280;11076;47.942;11.804;2023-04-05T22:33:02;94544.38;;;-2.30;73.62
21828;BME280;11076;47.942;11.804;2023-04-05T22:38:05;94540.25;;;-2.32;73.33
21828;BME280;11076;47.942;11.804;2023-04-05T22:43:07;94537.06;;;-2.36;73.69
21828;BME280;11076;47.942;11.804;2023-04-05T22:48:10;94533.63;;;-2.46;74.59
21828;BME280;11076;47.942;11.804;2023-04-05T22:53:13;94532.50;;;-2.53;74.77
21828;BME280;11076;47.942;11.804;2023-04-05T22:58:15;94526.69;;;-2.57;74.75
21828;BME280;11076;47.942;11.804;2023-04-05T23:03:18;94525.47;;;-2.63;75.48
21828;BME280;11076;47.942;11.804;2023-04-05T23:08:21;94532.06;;;-2.68;75.90
21828;BME280;11076;47.942;11.804;2023-04-05T23:13:23;94528.59;;;-2.78;76.43
21828;BME280;11076;47.942;11.804;2023-04-05T23:18:26;94536.13;;;-2.85;77.36
21828;BME280;11076;47.942;11.804;2023-04-05T23:23:28;94528.56;;;-2.88;77.10
21828;BME280;11076;47.942;11.804;2023-04-05T23:28:31;94528.81;;;-2.91;76.99
21828;BME280;11076;47.942;11.804;2023-04-05T23:33:33;94527.44;;;-2.95;77.40
21828;BME280;11076;47.942;11.804;2023-04-05T23:38:35;94525.47;;;-3.03;78.31
21828;BME280;11076;47.942;11.804;2023-04-05T23:43:38;94533.63;;;-3.06;79.00
21828;BME280;11076;47.942;11.804;2023-04-05T23:48:40;94520.66;;;-3.08;79.77
21828;BME280;11076;47.942;11.804;2023-04-05T23:53:43;94513.75;;;-3.09;79.42
21828;BME280;11076;47.942;11.804;2023-04-05T23:58:45;94520.22;;;-3.13;80.13
